首页
METAR-TAF:

METAR-TAF

机场 :

凯奇凯梅特, 匈牙利

纬度: 46-55N, 经度: 019-45E, 海拔: 113米

当前天气观测

该预报发布于43分钟前的22:45 UTC
风速6节,风向西转西北
温度 12°C
湿度 88%
气压 1014 hPa
能见度10公里或以上
多云层高于4500英尺
阴天层高于5300英尺

METAR: LHKE 312245Z 29006KT 9999 BKN045 OVC053 12/10 Q1014 R12/01//95 TEMPO -RA RMK BLU

时间: 01:28 (23:28 UTC)

预报

该预报发布于3小时和13分钟前的20:15 UTC
预报有效从31日的 21点(UTC)到 01日的 06点(UTC)
风速6节,风向西转西北
能见度10公里或以上
多云层高于3000英尺
多云层高于6000英尺
短暂存在
从 31日的 22点(UTC)到 01日的 06点(UTC)
能見度: 6000
散云层高于1000英尺
多云层高于2000英尺
阴天层高于4000英尺
小雨, 阵雨
成为
从 31日的 23点(UTC)到 01日的 02点(UTC)
风速6节,风向北转西北

TAF: LHKE 312015Z 3121/0106 29006KT 9999 BKN030 BKN060 TEMPO 3122/0106 6000 -RA SHRA SCT010 BKN020 OVC040 BECMG 3123/0102 34006KT

超过4000个机场的气象观测和天气预报(METAR&TAF报告)。

可查询的气象台以黄色和红色小点在地图上表示。

将鼠标移到小点上方,可查看气象台名称。

然后点击查看天气观测和预报。

如需切换地图:点击带黑十字的绿色按钮放大地图;点击带横线的绿色按钮缩小地图;或者点击绿色箭头查看邻近地区的地图。


METAR-TAF: